sensor_id;sensor_type;location;lat;lon;timestamp;pressure;altitude;pressure_sealevel;temperature;humidity
20628;BME280;10473;42.734;24.258;2023-05-02T00:01:47;92320.41;;;11.95;67.08
20628;BME280;10473;42.734;24.258;2023-05-02T00:04:15;92301.72;;;11.88;67.39
20628;BME280;10473;42.734;24.258;2023-05-02T00:06:42;92323.69;;;11.85;66.75
20628;BME280;10473;42.734;24.258;2023-05-02T00:09:12;92325.28;;;11.93;67.33
20628;BME280;10473;42.734;24.258;2023-05-02T00:11:40;92323.75;;;11.92;67.08
20628;BME280;10473;42.734;24.258;2023-05-02T00:14:08;92323.38;;;11.90;66.71
20628;BME280;10473;42.734;24.258;2023-05-02T00:16:36;92308.22;;;11.61;67.49
20628;BME280;10473;42.734;24.258;2023-05-02T00:19:04;92325.50;;;11.77;67.04
20628;BME280;10473;42.734;24.258;2023-05-02T00:21:32;92321.25;;;11.73;66.75
20628;BME280;10473;42.734;24.258;2023-05-02T00:23:59;92308.22;;;11.61;66.80
20628;BME280;10473;42.734;24.258;2023-05-02T00:26:28;92323.06;;;11.65;67.31
20628;BME280;10473;42.734;24.258;2023-05-02T00:28:57;92323.03;;;11.62;66.75
20628;BME280;10473;42.734;24.258;2023-05-02T00:31:24;92324.44;;;11.56;67.20
20628;BME280;10473;42.734;24.258;2023-05-02T00:33:53;92340.72;;;11.54;67.65
20628;BME280;10473;42.734;24.258;2023-05-02T00:36:22;92318.63;;;11.47;67.92
20628;BME280;10473;42.734;24.258;2023-05-02T00:38:50;92333.06;;;11.49;68.26
20628;BME280;10473;42.734;24.258;2023-05-02T00:41:17;92322.28;;;11.35;68.82
20628;BME280;10473;42.734;24.258;2023-05-02T00:43:46;92335.78;;;11.53;67.77
20628;BME280;10473;42.734;24.258;2023-05-02T00:46:14;92331.00;;;11.36;67.84
20628;BME280;10473;42.734;24.258;2023-05-02T00:48:42;92335.25;;;11.44;68.04
20628;BME280;10473;42.734;24.258;2023-05-02T00:51:10;92326.94;;;11.45;68.23
20628;BME280;10473;42.734;24.258;2023-05-02T00:53:39;92331.44;;;11.41;69.20
20628;BME280;10473;42.734;24.258;2023-05-02T00:56:07;92324.44;;;11.30;69.54
20628;BME280;10473;42.734;24.258;2023-05-02T00:58:35;92338.66;;;11.41;69.86
20628;BME280;10473;42.734;24.258;2023-05-02T01:01:18;92343.13;;;11.37;69.56
20628;BME280;10473;42.734;24.258;2023-05-02T01:04:01;92344.16;;;11.29;69.87
20628;BME280;10473;42.734;24.258;2023-05-02T01:06:41;92335.69;;;11.46;69.39
20628;BME280;10473;42.734;24.258;2023-05-02T01:09:24;92352.81;;;11.52;69.41
20628;BME280;10473;42.734;24.258;2023-05-02T01:12:00;92341.69;;;11.43;69.64
20628;BME280;10473;42.734;24.258;2023-05-02T01:14:32;92337.72;;;11.56;69.33
20628;BME280;10473;42.734;24.258;2023-05-02T01:17:04;92338.66;;;11.41;69.41
20628;BME280;10473;42.734;24.258;2023-05-02T01:19:35;92340.25;;;11.49;68.85
20628;BME280;10473;42.734;24.258;2023-05-02T01:22:08;92340.22;;;11.45;68.76
20628;BME280;10473;42.734;24.258;2023-05-02T01:24:42;92342.66;;;11.57;69.05
20628;BME280;10473;42.734;24.258;2023-05-02T01:27:22;92348.78;;;11.35;68.98
20628;BME280;10473;42.734;24.258;2023-05-02T01:29:56;92338.09;;;11.28;69.52
20628;BME280;10473;42.734;24.258;2023-05-02T01:32:27;92342.53;;;11.21;69.87
20628;BME280;10473;42.734;24.258;2023-05-02T01:34:57;92323.34;;;11.05;69.42
20628;BME280;10473;42.734;24.258;2023-05-02T01:37:27;92341.91;;;11.05;70.32
20628;BME280;10473;42.734;24.258;2023-05-02T01:39:56;92341.34;;;10.92;70.16
20628;BME280;10473;42.734;24.258;2023-05-02T01:42:25;92339.63;;;10.81;71.13
20628;BME280;10473;42.734;24.258;2023-05-02T01:44:57;92318.25;;;10.67;71.02
20628;BME280;10473;42.734;24.258;2023-05-02T01:47:28;92329.34;;;10.76;70.80
20628;BME280;10473;42.734;24.258;2023-05-02T01:49:58;92326.00;;;10.79;70.79
20628;BME280;10473;42.734;24.258;2023-05-02T01:52:26;92329.34;;;10.76;70.75
20628;BME280;10473;42.734;24.258;2023-05-02T01:54:57;92346.84;;;11.06;69.85
20628;BME280;10473;42.734;24.258;2023-05-02T01:57:26;92347.72;;;11.14;69.59
20628;BME280;10473;42.734;24.258;2023-05-02T01:59:56;92337.63;;;10.97;69.12
20628;BME280;10473;42.734;24.258;2023-05-02T02:02:26;92345.38;;;11.09;68.67
20628;BME280;10473;42.734;24.258;2023-05-02T02:04:55;92346.09;;;11.06;68.92
20628;BME280;10473;42.734;24.258;2023-05-02T02:07:23;92331.75;;;10.84;69.22
20628;BME280;10473;42.734;24.258;2023-05-02T02:09:51;92345.63;;;11.00;69.44
20628;BME280;10473;42.734;24.258;2023-05-02T02:12:23;92335.38;;;10.99;68.77
20628;BME280;10473;42.734;24.258;2023-05-02T02:15:07;92346.41;;;11.01;69.15
20628;BME280;10473;42.734;24.258;2023-05-02T02:17:38;92346.59;;;10.89;69.72
20628;BME280;10473;42.734;24.258;2023-05-02T02:20:09;92346.28;;;10.94;69.34
20628;BME280;10473;42.734;24.258;2023-05-02T02:22:39;92347.84;;;10.72;69.88
20628;BME280;10473;42.734;24.258;2023-05-02T02:25:10;92351.66;;;10.75;70.21
20628;BME280;10473;42.734;24.258;2023-05-02T02:27:39;92333.31;;;10.63;69.94
20628;BME280;10473;42.734;24.258;2023-05-02T02:30:09;92350.63;;;10.57;70.15
20628;BME280;10473;42.734;24.258;2023-05-02T02:32:37;92354.38;;;10.56;70.60
20628;BME280;10473;42.734;24.258;2023-05-02T02:35:08;92343.66;;;10.26;71.61
20628;BME280;10473;42.734;24.258;2023-05-02T02:37:40;92341.19;;;10.37;71.97
20628;BME280;10473;42.734;24.258;2023-05-02T02:40:16;92348.59;;;10.28;72.45
20628;BME280;10473;42.734;24.258;2023-05-02T02:42:54;92347.47;;;10.29;72.16
20628;BME280;10473;42.734;24.258;2023-05-02T02:45:34;92349.50;;;10.35;72.15
20628;BME280;10473;42.734;24.258;2023-05-02T02:48:14;92341.78;;;10.27;71.72
20628;BME280;10473;42.734;24.258;2023-05-02T02:50:53;92321.56;;;10.19;71.30
20628;BME280;10473;42.734;24.258;2023-05-02T02:53:30;92350.25;;;10.36;71.29
20628;BME280;10473;42.734;24.258;2023-05-02T02:56:02;92348.44;;;10.40;70.86
20628;BME280;10473;42.734;24.258;2023-05-02T02:58:41;92325.38;;;10.40;70.86
20628;BME280;10473;42.734;24.258;2023-05-02T03:01:15;92348.06;;;10.41;70.73
20628;BME280;10473;42.734;24.258;2023-05-02T03:03:46;92340.53;;;10.43;70.04
20628;BME280;10473;42.734;24.258;2023-05-02T03:06:15;92358.63;;;10.38;71.45
20628;BME280;10473;42.734;24.258;2023-05-02T03:08:44;92347.00;;;10.46;71.20
20628;BME280;10473;42.734;24.258;2023-05-02T03:11:17;92344.00;;;10.47;70.96
20628;BME280;10473;42.734;24.258;2023-05-02T03:13:44;92343.56;;;10.42;71.61
20628;BME280;10473;42.734;24.258;2023-05-02T03:16:31;92349.06;;;10.56;70.45
20628;BME280;10473;42.734;24.258;2023-05-02T03:19:00;92343.84;;;10.59;70.18
20628;BME280;10473;42.734;24.258;2023-05-02T03:21:28;92344.91;;;10.55;69.79
20628;BME280;10473;42.734;24.258;2023-05-02T03:23:59;92353.66;;;10.59;69.13
20628;BME280;10473;42.734;24.258;2023-05-02T03:26:27;92343.06;;;10.59;69.18
20628;BME280;10473;42.734;24.258;2023-05-02T03:28:56;92349.91;;;10.60;68.39
20628;BME280;10473;42.734;24.258;2023-05-02T03:31:31;92345.78;;;10.62;68.51
20628;BME280;10473;42.734;24.258;2023-05-02T03:34:00;92347.72;;;10.65;67.99
20628;BME280;10473;42.734;24.258;2023-05-02T03:36:28;92341.94;;;10.60;67.63
20628;BME280;10473;42.734;24.258;2023-05-02T03:38:57;92354.66;;;10.51;68.46
20628;BME280;10473;42.734;24.258;2023-05-02T03:41:25;92365.09;;;10.63;68.22
20628;BME280;10473;42.734;24.258;2023-05-02T03:44:00;92372.41;;;10.47;67.63
20628;BME280;10473;42.734;24.258;2023-05-02T03:46:31;92335.75;;;10.30;68.06
20628;BME280;10473;42.734;24.258;2023-05-02T03:49:00;92363.88;;;10.57;68.48
20628;BME280;10473;42.734;24.258;2023-05-02T03:51:27;92372.50;;;10.54;67.52
20628;BME280;10473;42.734;24.258;2023-05-02T03:53:57;92367.84;;;10.47;67.30
20628;BME280;10473;42.734;24.258;2023-05-02T03:56:25;92381.69;;;10.60;67.25
20628;BME280;10473;42.734;24.258;2023-05-02T03:59:08;92382.41;;;10.57;66.32
20628;BME280;10473;42.734;24.258;2023-05-02T04:01:37;92387.19;;;10.70;66.00
20628;BME280;10473;42.734;24.258;2023-05-02T04:04:05;92377.72;;;10.69;66.81
20628;BME280;10473;42.734;24.258;2023-05-02T04:06:38;92388.06;;;10.78;64.63
20628;BME280;10473;42.734;24.258;2023-05-02T04:09:07;92382.13;;;10.84;64.82
20628;BME280;10473;42.734;24.258;2023-05-02T04:11:42;92384.41;;;10.86;63.36
20628;BME280;10473;42.734;24.258;2023-05-02T04:14:12;92391.00;;;10.73;62.28
20628;BME280;10473;42.734;24.258;2023-05-02T04:16:46;92384.69;;;10.81;62.12
20628;BME280;10473;42.734;24.258;2023-05-02T04:19:17;92394.53;;;11.03;63.13
20628;BME280;10473;42.734;24.258;2023-05-02T04:21:45;92399.75;;;11.22;62.56
20628;BME280;10473;42.734;24.258;2023-05-02T04:24:14;92405.84;;;11.48;60.61
20628;BME280;10473;42.734;24.258;2023-05-02T04:26:42;92402.28;;;11.63;60.24
20628;BME280;10473;42.734;24.258;2023-05-02T04:29:12;92403.78;;;11.90;60.20
20628;BME280;10473;42.734;24.258;2023-05-02T04:31:41;92384.69;;;12.11;58.13
20628;BME280;10473;42.734;24.258;2023-05-02T04:34:13;92399.25;;;12.57;56.37
20628;BME280;10473;42.734;24.258;2023-05-02T04:36:44;92402.97;;;12.89;53.69
20628;BME280;10473;42.734;24.258;2023-05-02T04:39:15;92402.53;;;13.23;52.27
20628;BME280;10473;42.734;24.258;2023-05-02T04:41:53;92403.56;;;13.59;52.34
20628;BME280;10473;42.734;24.258;2023-05-02T04:44:22;92402.16;;;13.79;51.38
20628;BME280;10473;42.734;24.258;2023-05-02T04:46:52;92396.94;;;13.96;50.53
20628;BME280;10473;42.734;24.258;2023-05-02T04:49:19;92402.06;;;14.26;47.69
20628;BME280;10473;42.734;24.258;2023-05-02T04:51:47;92394.50;;;14.52;48.50
20628;BME280;10473;42.734;24.258;2023-05-02T04:54:18;92401.78;;;14.62;45.45
20628;BME280;10473;42.734;24.258;2023-05-02T04:56:46;92407.97;;;14.98;45.82
20628;BME280;10473;42.734;24.258;2023-05-02T04:59:16;92409.53;;;15.23;46.08
20628;BME280;10473;42.734;24.258;2023-05-02T05:01:44;92404.16;;;15.30;43.60
20628;BME280;10473;42.734;24.258;2023-05-02T05:04:13;92395.81;;;15.53;45.11
20628;BME280;10473;42.734;24.258;2023-05-02T05:06:41;92409.16;;;15.74;43.30
20628;BME280;10473;42.734;24.258;2023-05-02T05:09:09;92406.47;;;15.67;42.71
20628;BME280;10473;42.734;24.258;2023-05-02T05:11:37;92379.75;;;15.77;43.04
20628;BME280;10473;42.734;24.258;2023-05-02T05:14:07;92421.28;;;16.10;43.60
20628;BME280;10473;42.734;24.258;2023-05-02T05:16:37;92413.97;;;16.31;41.66
20628;BME280;10473;42.734;24.258;2023-05-02T05:19:05;92414.63;;;16.63;42.33
20628;BME280;10473;42.734;24.258;2023-05-02T05:21:35;92420.09;;;16.35;39.61
20628;BME280;10473;42.734;24.258;2023-05-02T05:24:04;92415.47;;;16.50;41.04
20628;BME280;10473;42.734;24.258;2023-05-02T05:26:32;92422.75;;;16.32;40.98
20628;BME280;10473;42.734;24.258;2023-05-02T05:29:00;92406.06;;;15.96;41.54
20628;BME280;10473;42.734;24.258;2023-05-02T05:31:34;92420.84;;;16.46;41.86
20628;BME280;10473;42.734;24.258;2023-05-02T05:34:02;92406.34;;;16.30;40.09
20628;BME280;10473;42.734;24.258;2023-05-02T05:36:30;92421.28;;;16.10;40.65
20628;BME280;10473;42.734;24.258;2023-05-02T05:38:59;92424.75;;;15.93;41.00
20628;BME280;10473;42.734;24.258;2023-05-02T05:41:42;92363.78;;;15.42;41.02
20628;BME280;10473;42.734;24.258;2023-05-02T05:44:17;92378.25;;;15.55;40.21
20628;BME280;10473;42.734;24.258;2023-05-02T05:46:47;92363.75;;;15.11;41.39
20628;BME280;10473;42.734;24.258;2023-05-02T05:49:15;92428.63;;;15.64;40.95
20628;BME280;10473;42.734;24.258;2023-05-02T05:51:44;92390.50;;;15.39;41.08
20628;BME280;10473;42.734;24.258;2023-05-02T05:54:15;92422.50;;;15.32;41.52
20628;BME280;10473;42.734;24.258;2023-05-02T05:56:43;92420.22;;;15.48;41.53
20628;BME280;10473;42.734;24.258;2023-05-02T05:59:15;92421.75;;;15.45;41.20
20628;BME280;10473;42.734;24.258;2023-05-02T06:01:42;92419.44;;;15.30;41.37
20628;BME280;10473;42.734;24.258;2023-05-02T06:04:13;92405.00;;;15.41;43.42
20628;BME280;10473;42.734;24.258;2023-05-02T06:06:45;92429.38;;;15.71;42.81
20628;BME280;10473;42.734;24.258;2023-05-02T06:09:14;92435.50;;;15.65;41.67
20628;BME280;10473;42.734;24.258;2023-05-02T06:11:42;92443.50;;;15.58;42.87
20628;BME280;10473;42.734;24.258;2023-05-02T06:14:10;92438.94;;;15.72;42.47
20628;BME280;10473;42.734;24.258;2023-05-02T06:16:40;92436.63;;;15.78;41.62
20628;BME280;10473;42.734;24.258;2023-05-02T06:19:07;92438.16;;;15.86;41.27
20628;BME280;10473;42.734;24.258;2023-05-02T06:21:35;92440.75;;;16.17;40.97
20628;BME280;10473;42.734;24.258;2023-05-02T06:24:03;92443.09;;;15.91;41.10
20628;BME280;10473;42.734;24.258;2023-05-02T06:26:33;92441.19;;;15.88;41.50
20628;BME280;10473;42.734;24.258;2023-05-02T06:29:00;92428.63;;;15.64;40.78
20628;BME280;10473;42.734;24.258;2023-05-02T06:31:29;92438.16;;;15.75;41.35
20628;BME280;10473;42.734;24.258;2023-05-02T06:33:57;92394.31;;;15.41;41.81
20628;BME280;10473;42.734;24.258;2023-05-02T06:36:26;92404.97;;;15.66;40.39
20628;BME280;10473;42.734;24.258;2023-05-02T06:38:55;92436.19;;;16.07;41.71
20628;BME280;10473;42.734;24.258;2023-05-02T06:41:22;92433.16;;;16.02;41.29
20628;BME280;10473;42.734;24.258;2023-05-02T06:43:51;92433.53;;;15.97;40.71
20628;BME280;10473;42.734;24.258;2023-05-02T06:46:19;92430.88;;;15.97;41.04
20628;BME280;10473;42.734;24.258;2023-05-02T06:48:48;92432.34;;;16.19;41.57
20628;BME280;10473;42.734;24.258;2023-05-02T06:51:17;92423.94;;;16.17;41.01
20628;BME280;10473;42.734;24.258;2023-05-02T06:53:46;92401.81;;;16.13;41.52
20628;BME280;10473;42.734;24.258;2023-05-02T06:56:14;92432.31;;;16.40;42.10
20628;BME280;10473;42.734;24.258;2023-05-02T06:58:41;92431.53;;;16.39;41.04
20628;BME280;10473;42.734;24.258;2023-05-02T07:01:11;92433.09;;;16.26;39.86
20628;BME280;10473;42.734;24.258;2023-05-02T07:03:39;92426.69;;;15.89;40.35
20628;BME280;10473;42.734;24.258;2023-05-02T07:06:07;92424.00;;;15.92;40.88
20628;BME280;10473;42.734;24.258;2023-05-02T07:08:34;92435.44;;;15.93;41.43
20628;BME280;10473;42.734;24.258;2023-05-02T07:11:02;92426.28;;;16.08;41.35
20628;BME280;10473;42.734;24.258;2023-05-02T07:13:30;92424.75;;;16.00;41.02
20628;BME280;10473;42.734;24.258;2023-05-02T07:15:57;92430.09;;;16.00;39.86
20628;BME280;10473;42.734;24.258;2023-05-02T07:18:27;92422.03;;;16.21;39.98
20628;BME280;10473;42.734;24.258;2023-05-02T07:20:55;92428.47;;;16.48;41.68
20628;BME280;10473;42.734;24.258;2023-05-02T07:23:22;92410.13;;;16.50;40.05
20628;BME280;10473;42.734;24.258;2023-05-02T07:25:50;92430.31;;;16.61;39.87
20628;BME280;10473;42.734;24.258;2023-05-02T07:28:18;92416.03;;;16.92;39.84
20628;BME280;10473;42.734;24.258;2023-05-02T07:30:45;92416.00;;;16.99;39.65
20628;BME280;10473;42.734;24.258;2023-05-02T07:33:14;92427.09;;;16.98;38.69
20628;BME280;10473;42.734;24.258;2023-05-02T07:35:43;92439.03;;;16.83;39.03
20628;BME280;10473;42.734;24.258;2023-05-02T07:38:10;92430.34;;;16.58;38.99
20628;BME280;10473;42.734;24.258;2023-05-02T07:40:38;92432.97;;;16.68;38.29
20628;BME280;10473;42.734;24.258;2023-05-02T07:43:06;92416.16;;;16.68;38.18
20628;BME280;10473;42.734;24.258;2023-05-02T07:45:34;92356.28;;;16.34;38.97
20628;BME280;10473;42.734;24.258;2023-05-02T07:48:02;92408.97;;;16.51;37.45
20628;BME280;10473;42.734;24.258;2023-05-02T07:50:30;92442.09;;;16.78;37.97
20628;BME280;10473;42.734;24.258;2023-05-02T07:52:59;92431.44;;;16.67;37.84
20628;BME280;10473;42.734;24.258;2023-05-02T07:55:27;92435.94;;;16.88;36.63
20628;BME280;10473;42.734;24.258;2023-05-02T07:57:56;92440.91;;;16.86;36.59
20628;BME280;10473;42.734;24.258;2023-05-02T08:00:24;92432.09;;;16.92;36.06
20628;BME280;10473;42.734;24.258;2023-05-02T08:02:51;92426.69;;;17.03;36.58
20628;BME280;10473;42.734;24.258;2023-05-02T08:05:19;92427.53;;;16.86;36.10
20628;BME280;10473;42.734;24.258;2023-05-02T08:07:47;92421.41;;;16.85;36.51
20628;BME280;10473;42.734;24.258;2023-05-02T08:10:17;92437.06;;;16.94;37.15
20628;BME280;10473;42.734;24.258;2023-05-02T08:12:45;92436.44;;;17.30;37.69
20628;BME280;10473;42.734;24.258;2023-05-02T08:15:13;92440.22;;;17.36;36.68
20628;BME280;10473;42.734;24.258;2023-05-02T08:17:40;92427.22;;;17.42;37.49
20628;BME280;10473;42.734;24.258;2023-05-02T08:20:09;92435.03;;;17.08;36.49
20628;BME280;10473;42.734;24.258;2023-05-02T08:22:37;92430.50;;;17.02;36.17
20628;BME280;10473;42.734;24.258;2023-05-02T08:25:05;92429.69;;;17.08;36.79
20628;BME280;10473;42.734;24.258;2023-05-02T08:27:34;92427.06;;;17.01;36.27
20628;BME280;10473;42.734;24.258;2023-05-02T08:30:02;92418.03;;;16.74;37.11
20628;BME280;10473;42.734;24.258;2023-05-02T08:32:31;92416.75;;;17.00;36.79
20628;BME280;10473;42.734;24.258;2023-05-02T08:34:58;92431.03;;;17.37;37.97
20628;BME280;10473;42.734;24.258;2023-05-02T08:37:26;92426.91;;;17.26;36.01
20628;BME280;10473;42.734;24.258;2023-05-02T08:39:54;92426.09;;;17.39;36.84
20628;BME280;10473;42.734;24.258;2023-05-02T08:42:22;92413.63;;;17.12;35.67
20628;BME280;10473;42.734;24.258;2023-05-02T08:44:52;92425.31;;;17.35;37.49
20628;BME280;10473;42.734;24.258;2023-05-02T08:47:21;92431.00;;;17.48;36.40
20628;BME280;10473;42.734;24.258;2023-05-02T08:49:50;92409.69;;;17.27;36.60
20628;BME280;10473;42.734;24.258;2023-05-02T08:52:20;92435.44;;;17.68;35.41
20628;BME280;10473;42.734;24.258;2023-05-02T08:54:49;92423.94;;;17.68;36.22
20628;BME280;10473;42.734;24.258;2023-05-02T08:57:17;92425.22;;;17.97;34.95
20628;BME280;10473;42.734;24.258;2023-05-02T08:59:45;92421.50;;;17.84;34.20
20628;BME280;10473;42.734;24.258;2023-05-02T09:02:24;92421.34;;;17.57;35.63
20628;BME280;10473;42.734;24.258;2023-05-02T09:05:00;92390.63;;;17.18;34.52
20628;BME280;10473;42.734;24.258;2023-05-02T09:07:43;92424.94;;;17.37;36.03
20628;BME280;10473;42.734;24.258;2023-05-02T09:10:12;92421.25;;;17.17;35.33
20628;BME280;10473;42.734;24.258;2023-05-02T09:12:39;92421.91;;;17.31;36.90
20628;BME280;10473;42.734;24.258;2023-05-02T09:15:11;92418.16;;;17.22;36.83
20628;BME280;10473;42.734;24.258;2023-05-02T09:17:43;92406.41;;;17.05;35.99
20628;BME280;10473;42.734;24.258;2023-05-02T09:20:11;92402.19;;;17.01;34.86
20628;BME280;10473;42.734;24.258;2023-05-02T09:22:46;92404.44;;;17.13;37.09
20628;BME280;10473;42.734;24.258;2023-05-02T09:25:14;92405.09;;;17.31;36.43
20628;BME280;10473;42.734;24.258;2023-05-02T09:27:50;92411.16;;;17.35;36.33
20628;BME280;10473;42.734;24.258;2023-05-02T09:30:20;92418.31;;;17.55;36.38
20628;BME280;10473;42.734;24.258;2023-05-02T09:32:50;92413.44;;;17.43;36.31
20628;BME280;10473;42.734;24.258;2023-05-02T09:35:21;92400.41;;;17.45;36.29
20628;BME280;10473;42.734;24.258;2023-05-02T09:37:53;92400.00;;;17.47;35.97
20628;BME280;10473;42.734;24.258;2023-05-02T09:40:21;92412.53;;;17.60;36.32
20628;BME280;10473;42.734;24.258;2023-05-02T09:42:49;92399.75;;;17.78;36.48
20628;BME280;10473;42.734;24.258;2023-05-02T09:45:21;92391.59;;;17.45;36.52
20628;BME280;10473;42.734;24.258;2023-05-02T09:47:50;92391.34;;;17.73;37.47
20628;BME280;10473;42.734;24.258;2023-05-02T09:50:31;92397.75;;;17.86;36.17
20628;BME280;10473;42.734;24.258;2023-05-02T09:53:00;92398.97;;;17.78;35.46
20628;BME280;10473;42.734;24.258;2023-05-02T09:55:30;92394.69;;;17.84;35.30
20628;BME280;10473;42.734;24.258;2023-05-02T09:57:58;92391.59;;;17.89;37.46
20628;BME280;10473;42.734;24.258;2023-05-02T10:00:39;92393.09;;;17.90;35.69
20628;BME280;10473;42.734;24.258;2023-05-02T10:03:09;92392.34;;;17.89;37.55
20628;BME280;10473;42.734;24.258;2023-05-02T10:05:37;92396.16;;;17.92;36.09
20628;BME280;10473;42.734;24.258;2023-05-02T10:08:06;92380.16;;;17.81;36.02
20628;BME280;10473;42.734;24.258;2023-05-02T10:10:38;92383.84;;;17.98;36.73
20628;BME280;10473;42.734;24.258;2023-05-02T10:13:07;92393.25;;;18.13;35.23
20628;BME280;10473;42.734;24.258;2023-05-02T10:15:39;92378.69;;;18.14;35.25
20628;BME280;10473;42.734;24.258;2023-05-02T10:18:13;92385.22;;;18.13;35.30
20628;BME280;10473;42.734;24.258;2023-05-02T10:20:45;92388.38;;;18.04;36.99
20628;BME280;10473;42.734;24.258;2023-05-02T10:23:16;92375.34;;;18.03;35.17
20628;BME280;10473;42.734;24.258;2023-05-02T10:25:46;92379.53;;;18.07;36.16
20628;BME280;10473;42.734;24.258;2023-05-02T10:28:14;92357.59;;;18.16;35.07
20628;BME280;10473;42.734;24.258;2023-05-02T10:30:43;92377.31;;;18.36;33.99
20628;BME280;10473;42.734;24.258;2023-05-02T10:33:15;92369.91;;;18.47;35.49
20628;BME280;10473;42.734;24.258;2023-05-02T10:35:44;92380.53;;;18.57;35.10
20628;BME280;10473;42.734;24.258;2023-05-02T10:38:15;92383.50;;;18.63;36.07
20628;BME280;10473;42.734;24.258;2023-05-02T10:40:52;92380.59;;;18.50;35.45
20628;BME280;10473;42.734;24.258;2023-05-02T10:43:29;92378.06;;;18.40;33.87
20628;BME280;10473;42.734;24.258;2023-05-02T10:45:57;92370.97;;;18.53;33.62
20628;BME280;10473;42.734;24.258;2023-05-02T10:48:26;92367.31;;;18.70;34.08
20628;BME280;10473;42.734;24.258;2023-05-02T10:50:55;92363.91;;;18.66;35.55
20628;BME280;10473;42.734;24.258;2023-05-02T10:53:28;92371.56;;;18.67;33.53
20628;BME280;10473;42.734;24.258;2023-05-02T10:56:16;92377.16;;;18.50;33.91
20628;BME280;10473;42.734;24.258;2023-05-02T10:59:29;92369.19;;;18.73;33.18
20628;BME280;10473;42.734;24.258;2023-05-02T11:01:58;92356.66;;;18.63;32.75
20628;BME280;10473;42.734;24.258;2023-05-02T11:07:32;92361.94;;;18.70;33.05
20628;BME280;10473;42.734;24.258;2023-05-02T11:13:00;92362.13;;;18.86;35.24
20628;BME280;10473;42.734;24.258;2023-05-02T11:15:53;92357.47;;;18.90;32.95
20628;BME280;10473;42.734;24.258;2023-05-02T11:18:22;92358.66;;;18.59;33.13
20628;BME280;10473;42.734;24.258;2023-05-02T11:20:50;92346.88;;;18.49;32.94
20628;BME280;10473;42.734;24.258;2023-05-02T11:23:23;92336.59;;;18.44;32.73
20628;BME280;10473;42.734;24.258;2023-05-02T11:25:55;92345.47;;;18.68;33.30
20628;BME280;10473;42.734;24.258;2023-05-02T11:28:40;92340.09;;;18.68;33.41
20628;BME280;10473;42.734;24.258;2023-05-02T11:31:09;92312.41;;;18.74;33.69
20628;BME280;10473;42.734;24.258;2023-05-02T11:33:56;92344.97;;;19.03;34.32
20628;BME280;10473;42.734;24.258;2023-05-02T11:36:27;92341.53;;;18.76;33.19
20628;BME280;10473;42.734;24.258;2023-05-02T11:38:57;92330.00;;;18.79;32.97
20628;BME280;10473;42.734;24.258;2023-05-02T11:41:37;92320.91;;;18.69;33.60
20628;BME280;10473;42.734;24.258;2023-05-02T11:44:05;92339.91;;;18.82;33.73
20628;BME280;10473;42.734;24.258;2023-05-02T11:46:35;92340.63;;;18.86;32.61
20628;BME280;10473;42.734;24.258;2023-05-02T11:49:04;92332.13;;;18.91;31.89
20628;BME280;10473;42.734;24.258;2023-05-02T11:51:33;92332.13;;;18.91;32.86
20628;BME280;10473;42.734;24.258;2023-05-02T11:54:02;92320.78;;;18.80;33.11
20628;BME280;10473;42.734;24.258;2023-05-02T11:56:33;92325.78;;;19.04;33.26
20628;BME280;10473;42.734;24.258;2023-05-02T11:59:01;92320.53;;;18.97;32.17
20628;BME280;10473;42.734;24.258;2023-05-02T12:01:29;92319.66;;;19.04;32.04
20628;BME280;10473;42.734;24.258;2023-05-02T12:04:01;92309.06;;;18.93;32.80
20628;BME280;10473;42.734;24.258;2023-05-02T12:06:29;92302.47;;;18.98;32.81
20628;BME280;10473;42.734;24.258;2023-05-02T12:09:08;92310.22;;;19.19;32.59
20628;BME280;10473;42.734;24.258;2023-05-02T12:11:36;92306.81;;;19.15;31.24
20628;BME280;10473;42.734;24.258;2023-05-02T12:14:04;92278.19;;;19.05;32.30
20628;BME280;10473;42.734;24.258;2023-05-02T12:16:32;92301.19;;;19.06;31.64
20628;BME280;10473;42.734;24.258;2023-05-02T12:19:00;92301.75;;;19.20;32.04
20628;BME280;10473;42.734;24.258;2023-05-02T12:21:29;92308.09;;;19.07;32.22
20628;BME280;10473;42.734;24.258;2023-05-02T12:23:59;92297.53;;;18.96;32.15
20628;BME280;10473;42.734;24.258;2023-05-02T12:26:29;92279.28;;;18.84;32.19
20628;BME280;10473;42.734;24.258;2023-05-02T12:28:58;92297.66;;;18.86;32.20
20628;BME280;10473;42.734;24.258;2023-05-02T12:31:27;92290.94;;;18.74;33.06
20628;BME280;10473;42.734;24.258;2023-05-02T12:33:57;92282.13;;;18.47;33.12
20628;BME280;10473;42.734;24.258;2023-05-02T12:36:25;92283.69;;;18.45;33.33
20628;BME280;10473;42.734;24.258;2023-05-02T12:38:56;92282.84;;;18.18;32.71
20628;BME280;10473;42.734;24.258;2023-05-02T12:41:33;92281.09;;;18.04;32.88
20628;BME280;10473;42.734;24.258;2023-05-02T12:44:02;92265.34;;;18.10;34.31
20628;BME280;10473;42.734;24.258;2023-05-02T12:46:30;92269.44;;;18.18;33.85
20628;BME280;10473;42.734;24.258;2023-05-02T12:49:01;92264.88;;;18.15;34.27
20628;BME280;10473;42.734;24.258;2023-05-02T12:51:30;92247.47;;;17.96;34.38
20628;BME280;10473;42.734;24.258;2023-05-02T12:53:58;92255.50;;;18.00;33.77
20628;BME280;10473;42.734;24.258;2023-05-02T12:56:25;92267.34;;;18.02;33.95
20628;BME280;10473;42.734;24.258;2023-05-02T12:58:59;92252.88;;;17.93;33.59
20628;BME280;10473;42.734;24.258;2023-05-02T13:01:31;92252.44;;;17.98;34.02
20628;BME280;10473;42.734;24.258;2023-05-02T13:03:59;92250.81;;;18.04;35.21
20628;BME280;10473;42.734;24.258;2023-05-02T13:06:27;92210.16;;;17.79;34.40
20628;BME280;10473;42.734;24.258;2023-05-02T13:08:55;92238.28;;;17.97;34.84
20628;BME280;10473;42.734;24.258;2023-05-02T13:11:25;92208.53;;;17.88;35.52
20628;BME280;10473;42.734;24.258;2023-05-02T13:13:53;92232.78;;;18.08;36.32